Airfield :







YOU CAN JOIN US ON...

 
LOGIN :

Register | Disclaimer

   EN    FR    IT 

 









Legend :    VFR   Marginal VFR   IFR   Intensive IFR   Very Intensive IFR
Visi :
Ceiling :
>= 8 km
>= 3000ft
5 to 8 km
1000 to 3000 ft
1500m to 5 km
500 to 1000 ft
800 to 1500m
200 to 500 ft
< 800m
< 200 ft
Symbols :   Thunderstorms  Fog  Heavy snow  Heavy precipitations  Wind > 20 kt






- Airport Elevation : 270 ft
- IATA code : YMX


CYMX - Montreal International Mirabel

CURRENT METAR :
  • 201800Z 24007G16KT 210V330 45SM FEW060 FEW250 M12/M23 A3043 RMK SC1CI1 SC TR CI TR SLP314

EXPIRED METARs :
  • 201700Z 26008KT 45SM FEW060 M13/M24 A3046 RMK SC1 SC TR SLP323
  • 201600Z 26006KT 240V330 45SM FEW030 FEW060 M13/M23 A3047 RMK CF1SC1 CF TR SC TR SLP329

TAF TAF CYMX
Valid from the 20 at 18:00 until the 21 at 18:00 UTC


201739Z 2018/2118 27010KT P6SM FEW060
BECMG 2022/2024 27005KT
FM210300 25003KT P6SM SKC
FM211300 25005KT P6SM FEW020 SCT040
FM211700 23007KT P6SM FEW030 RMK NXT FCST BY 210000Z



MET'MAP, your aeronautical weather chart ! - Copyright ORBIFLY December 2007 - Disclaimer

ORBIFLY MET'MAP TEAM :

Programming & Development : Alexandra Zaïnal
Concept & original design : Baudouin d'Aumeries
Assistance for programming : Marc-Olivier Méhu
Technical & hardware support : Manuel Goepfert

Contact : metmap@orbifly.com




SOURCES & CREDITS :

   NOAA